Reklama
Líbí se Vám tento web? Budeme velmi rádi, pokud přidáte hodnocení +1

Seznam meteostanic a jejich METAR

Vyhledat místa podle abecedy:
A B C D E F G H I J K L M N O P Q R S T U V W X Y Z

Filtrovat:

ID stanice:
a/nebo
Název místa (fulltext):
 
Místo (ID)Naposledy načteno 
Brno - Tuřany (Brno/Tu) 17.07.2018 09:00 UTC Zobrazit data
Místo: Brno - Tuřany
Teplota: 26 °C (pocitová: 27 °C)
Vítr: 9 m/s z(e) 300°
Počasí: skoro zataženo
Dohlednost: 30 km
Zákl. oblačnosti: 1/8 1500 m
Vlhkost: 39%
Červená - Opava (Cervena/uL) 17.07.2018 09:00 UTC Zobrazit data
Místo: Červená - Opava
Teplota: 17 °C (pocitová: 15.3 °C)
Vítr: 3 m/s z(e) 320°
Počasí: skoro zataženo
Dohlednost: 25 km
Zákl. oblačnosti: 6/8 600 m;7/8 2700 m
Vlhkost: 77%
České Budějovice (C.Budej/po) 17.07.2018 09:00 UTC Zobrazit data
Místo: České Budějovice
Teplota: 25 °C (pocitová: 25.7 °C)
Vítr: 5 m/s z(e) 320°
Počasí:
Dohlednost: 35 km
Zákl. oblačnosti: N/A
Vlhkost: 42%
Cheb (Cheb) 17.07.2018 09:00 UTC Zobrazit data
Místo: Cheb
Teplota: 24 °C (pocitová: 24.5 °C)
Vítr: 4 m/s z(e) 330°
Počasí: oblačno
Dohlednost: 35 km
Zákl. oblačnosti: 3/8 1500 m
Vlhkost: 39%
Chotusice - Čáslav (Caslav) 17.07.2018 09:00 UTC Zobrazit data
Místo: Chotusice - Čáslav
Teplota: 22 °C (pocitová: 21.6 °C)
Vítr: 5 m/s z(e) 320°
Počasí: skoro zataženo
Dohlednost: 20 km
Zákl. oblačnosti: 3/8 1440 m;7/8 3000 m
Vlhkost: 57%
Churáňov (Churanov) 17.07.2018 09:00 UTC Zobrazit data
Místo: Churáňov
Teplota: 17 °C (pocitová: 14.9 °C)
Vítr: 4 m/s z(e) 330°
Počasí: oblačno
Dohlednost: 40 km
Zákl. oblačnosti: 3/8 1050 m
Vlhkost: 56%
Doksany - Litoměřice (Doksany) 17.07.2018 09:00 UTC Zobrazit data
Místo: Doksany - Litoměřice
Teplota: 25 °C (pocitová: 25.9 °C)
Vítr: 4 m/s z(e) 320°
Počasí: skoro zataženo
Dohlednost: 60 km
Zákl. oblačnosti: 3/8 1200 m;4/8 6000 m
Vlhkost: 51%
Dukovany (Dukovany) 17.07.2018 09:00 UTC Zobrazit data
Místo: Dukovany
Teplota: 25 °C (pocitová: 25.5 °C)
Vítr: 10 m/s z(e) 320°
Počasí: skoro zataženo
Dohlednost: 30 km
Zákl. oblačnosti: 4/8 1500 m;5/8 6300 m
Vlhkost: 42%
Holešov (Holesov) 17.07.2018 09:00 UTC Zobrazit data
Místo: Holešov
Teplota: 25 °C (pocitová: 25.6 °C)
Vítr: 7 m/s z(e) 320°
Počasí: skoro zataženo
Dohlednost: 45 km
Zákl. oblačnosti: 5/8 1380 m;5/8 8400 m
Vlhkost: 51%
Kadaň - Tušimice (Tusimice) 17.07.2018 09:00 UTC Zobrazit data
Místo: Kadaň - Tušimice
Teplota: 24 °C (pocitová: 24.7 °C)
Vítr: 3 m/s z(e) 340°
Počasí: skoro zataženo
Dohlednost: 40 km
Zákl. oblačnosti: 2/8 1290 m;4/8 3000 m
Vlhkost: 44%
Karlovy Vary (K.Vary) 17.07.2018 09:00 UTC Zobrazit data
Místo: Karlovy Vary
Teplota: 23 °C (pocitová: 22.9 °C)
Vítr: 5 m/s z(e) 320°
Počasí: oblačno
Dohlednost: 40 km
Zákl. oblačnosti: 3/8 1380 m
Vlhkost: 41%
Kocelovice (Kocelovice) 17.07.2018 09:00 UTC Zobrazit data
Místo: Kocelovice
Teplota: 23 °C (pocitová: 22.8 °C)
Vítr: 6 m/s z(e) 290°
Počasí: skorojasno
Dohlednost: 55 km
Zákl. oblačnosti: 2/8 1140 m
Vlhkost: 50%
Kopisty (Kopisty) 17.07.2018 09:00 UTC Zobrazit data
Místo: Kopisty
Teplota: 28 °C (pocitová: 30 °C)
Vítr: 4 m/s z(e) 300°
Počasí: skoro zataženo
Dohlednost: 35 km
Zákl. oblačnosti: 2/8 1800 m;3/8 3300 m
Vlhkost: 37%
Kostelní Myslová (K.Myslova) 17.07.2018 09:00 UTC Zobrazit data
Místo: Kostelní Myslová
Teplota: 22 °C (pocitová: 21.6 °C)
Vítr: 5 m/s z(e) 300°
Počasí: skorojasno
Dohlednost: 35 km
Zákl. oblačnosti: 1/8 1410 m
Vlhkost: 50%
Křešín - Kramolín (Kramolin) 17.07.2018 09:00 UTC Zobrazit data
Místo: Křešín - Kramolín
Teplota: 22 °C (pocitová: 21.4 °C)
Vítr: 6 m/s z(e) 320°
Počasí: skoro zataženo
Dohlednost: 35 km
Zákl. oblačnosti: 3/8 1440 m;5/8 6900 m
Vlhkost: 50%
Kuchařovice - Znojmo (Kucharovic) 17.07.2018 09:00 UTC Zobrazit data
Místo: Kuchařovice - Znojmo
Teplota: 26 °C (pocitová: 27 °C)
Vítr: 8 m/s z(e) 330°
Počasí: oblačno
Dohlednost: 45 km
Zákl. oblačnosti: 2/8 1500 m
Vlhkost: 37%
Liberec (Liberec) 17.07.2018 09:00 UTC Zobrazit data
Místo: Liberec
Teplota: 20 °C (pocitová: 19.8 °C)
Vítr: 2 m/s z(e) 310°
Počasí: skoro zataženo
Dohlednost: 23 km
Zákl. oblačnosti: 5/8 1200 m;3/8 1500 m
Vlhkost: 64%
Luká (Luka) 17.07.2018 09:00 UTC Zobrazit data
Místo: Luká
Teplota: 20 °C (pocitová: 18.2 °C)
Vítr: 8 m/s z(e) 310°
Počasí: skoro zataženo
Dohlednost: 35 km
Zákl. oblačnosti: 1/8 900 m;7/8 7500 m
Vlhkost: 60%
Lysá Hora (Lysa Hora) 17.07.2018 01:00 UTC Zobrazit data
Místo: Lysá Hora
Teplota: 11 °C (pocitová: 5.8 °C)
Vítr: 6 m/s z(e) 330°
Počasí: zataženo
Dohlednost: 1700 m
Zákl. oblačnosti: 2/8 90 m;6/8 3000 m
Vlhkost: 100%
Milešovka (Milesovka) 17.07.2018 09:00 UTC Zobrazit data
Místo: Milešovka
Teplota: 20 °C (pocitová: 18.6 °C)
Vítr: 6 m/s z(e) 340°
Počasí: skoro zataženo
Dohlednost: 35 km
Zákl. oblačnosti: 3/8 1200 m
Vlhkost: 60%
Mošnov (Ostrava/Mo) 17.07.2018 09:00 UTC Zobrazit data
Místo: Mošnov
Teplota: 21 °C (pocitová: 20.2 °C)
Vítr: 5 m/s z(e) 310°
Počasí: zataženo
Dohlednost: 20 km
Zákl. oblačnosti: 5/8 900 m;8/8 1800 m
Vlhkost: 64%
Náměšť nad Oslavou (Namest n/O) 17.07.2018 09:00 UTC Zobrazit data
Místo: Náměšť nad Oslavou
Teplota: 23 °C (pocitová: 22.6 °C)
Vítr: 8 m/s z(e) 320°
Počasí: skoro zataženo
Dohlednost: 25 km
Zákl. oblačnosti: 4/8 1290 m;5/8 6300 m
Vlhkost: 50%
Pardubice (Pardubice) 17.07.2018 09:00 UTC Zobrazit data
Místo: Pardubice
Teplota: 20 °C (pocitová: 18.8 °C)
Vítr: 5 m/s z(e) 270°
Počasí: skoro zataženo
Dohlednost: 20 km
Zákl. oblačnosti: 3/8 1500 m;7/8 2100 m
Vlhkost: 64%
Pec pod Sněžkou (Pec p.Snez) 17.07.2018 09:00 UTC Zobrazit data
Místo: Pec pod Sněžkou
Teplota: 15 °C (pocitová: 14.1 °C)
Vítr: 1 m/s z(e) 0°
Počasí: déšť
Dohlednost: 20 km
Zákl. oblačnosti: 8/8 450 m
Vlhkost: 88%
Plzeň město - Mikulka (Plzen/Miku) 17.07.2018 09:00 UTC Zobrazit data
Místo: Plzeň město - Mikulka
Teplota: 25 °C (pocitová: 25.9 °C)
Vítr: 4 m/s z(e) 310°
Počasí: oblačno
Dohlednost: 45 km
Zákl. oblačnosti: 3/8 1500 m
Vlhkost: 36%
Polom (Polom) 17.07.2018 09:00 UTC Zobrazit data
Místo: Polom
Teplota: 15 °C (pocitová: 12.2 °C)
Vítr: 4 m/s z(e) 330°
Počasí: zataženo
Dohlednost: 15 km
Zákl. oblačnosti: 4/8 360 m;7/8 1800 m
Vlhkost: 88%
Praha - Karlov (Praha/Kar) 17.07.2018 09:00 UTC Zobrazit data
Místo: Praha - Karlov
Teplota: 24 °C (pocitová: 24.7 °C)
Vítr: 3 m/s z(e) 340°
Počasí: skoro zataženo
Dohlednost: 40 km
Zákl. oblačnosti: 2/8 1500 m;5/8 3000 m
Vlhkost: 44%
Praha - Kbely (Praha/Kbe) 17.07.2018 09:00 UTC Zobrazit data
Místo: Praha - Kbely
Teplota: 25 °C (pocitová: 25.7 °C)
Vítr: 5 m/s z(e) 330°
Počasí: skoro zataženo
Dohlednost: 25 km
Zákl. oblačnosti: 1/8 1350 m;4/8 2100 m
Vlhkost: 44%
Praha - Libuš (Praha/Lib) 17.07.2018 09:00 UTC Zobrazit data
Místo: Praha - Libuš
Teplota: 24 °C (pocitová: 24.5 °C)
Vítr: 4 m/s z(e) 310°
Počasí: skoro zataženo
Dohlednost: 45 km
Zákl. oblačnosti: 2/8 1380 m;4/8 2400 m
Vlhkost: 50%
Praha - Ruzyně (Praha/Ru) 17.07.2018 09:00 UTC Zobrazit data
Místo: Praha - Ruzyně
Teplota: 25 °C (pocitová: 25.6 °C)
Vítr: 7 m/s z(e) 330°
Počasí: skoro zataženo
Dohlednost: 35 km
Zákl. oblačnosti: 1/8 1500 m;7/8 2400 m
Vlhkost: 44%
Přibyslav (Pribyslav) 17.07.2018 09:00 UTC Zobrazit data
Místo: Přibyslav
Teplota: 19 °C (pocitová: 17.2 °C)
Vítr: 6 m/s z(e) 330°
Počasí: zataženo
Dohlednost: 30 km
Zákl. oblačnosti: 8/8 1140 m
Vlhkost: 68%
Přimda (Primda) 17.07.2018 09:00 UTC Zobrazit data
Místo: Přimda
Teplota: 22 °C (pocitová: 22 °C)
Vítr: 3 m/s z(e) 310°
Počasí: skoro zataženo
Dohlednost: 65 km
Zákl. oblačnosti: 5/8 1500 m
Vlhkost: 41%
Šerák (Serak) 17.07.2018 05:00 UTC Zobrazit data
Místo: Šerák
Teplota: 11 °C (pocitová: 6.7 °C)
Vítr: 4 m/s z(e) 340°
Počasí: zataženo
Dohlednost: 3800 m
Zákl. oblačnosti: 8/8 30 m
Vlhkost: 100%
Svratouch (Svratouch) 17.07.2018 09:00 UTC Zobrazit data
Místo: Svratouch
Teplota: 16 °C (pocitová: 13.2 °C)
Vítr: 5 m/s z(e) 330°
Počasí: zataženo
Dohlednost: 23 km
Zákl. oblačnosti: 8/8 720 m
Vlhkost: 83%
Temelín (Temelin) 17.07.2018 09:00 UTC Zobrazit data
Místo: Temelín
Teplota: 23 °C (pocitová: 22.8 °C)
Vítr: 6 m/s z(e) 320°
Počasí: skoro zataženo
Dohlednost: 45 km
Zákl. oblačnosti: 6/8 1200 m
Vlhkost: 41%
Ústí nad Labem - Kočkov (Usti n/L) 17.07.2018 09:00 UTC Zobrazit data
Místo: Ústí nad Labem - Kočkov
Teplota: 24 °C (pocitová: 24.2 °C)
Vítr: 7 m/s z(e) 340°
Počasí: skoro zataženo
Dohlednost: 70 km
Zákl. oblačnosti: 2/8 1410 m;4/8 3300 m
Vlhkost: 47%
Ústí nad Orlicí (Usti n/O) 17.07.2018 09:00 UTC Zobrazit data
Místo: Ústí nad Orlicí
Teplota: 18 °C (pocitová: 16.7 °C)
Vítr: 3 m/s z(e) 290°
Počasí: zataženo
Dohlednost: 20 km
Zákl. oblačnosti: 1/8 390 m;5/8 1800 m
Vlhkost: 88%
Aalborg (EKYT) 17.07.2018 04:50 UTC Zobrazit METAR
EKYT 170450Z 00000KT 4500 BCFG NSC 14/14 Q1014
Aarhus (EKAH) 11.06.2018 05:50 UTC Zobrazit METAR
EKAH 110550Z 26013KT 9999 BKN025 14/11 Q1008
Abu Dhabi (OMAA) 17.07.2018 09:00 UTC Zobrazit METAR
OMAA 170900Z 31018KT CAVOK 40/19 Q0994 NOSIG
Abuja (DNAA) 17.07.2018 09:00 UTC Zobrazit METAR
DNAA 170900Z 13004KT 090V180 9999 SCT008 23/20 Q1017 NOSIG
Accra (DGAA) 17.07.2018 09:00 UTC Zobrazit METAR
DGAA 170900Z 22011KT 8000 SCT014 BKN016 26/23 Q1016 NOSIG
Addis Abeba (HAAB) 16.07.2018 07:00 UTC Zobrazit METAR
HAAB 160700Z 24106KT 9000 BKN025 BKN070 19/13 Q1027
Agana (PGUM) 17.07.2018 08:54 UTC Zobrazit METAR
PGUM 170854Z 00000KT 10SM CLR 29/26 A2981 RMK AO2 SLP086 T02890261 53010
Ahe Island (NTHE) Zatím nenačteno  
Akureyri (BIAR) 17.07.2018 09:00 UTC Zobrazit METAR
BIAR 170900Z 00000KT 9999 FEW025 SCT040 09/05 Q1009
Almaty (UAAA) Zatím nenačteno  
Amman (OJAM) 17.07.2018 09:00 UTC Zobrazit METAR
OJAM 170900Z 31010KT 5000 HZ FEW030 30/11 Q1010 NOSIG
Amsterdam (EHAM) 17.07.2018 08:55 UTC Zobrazit METAR
EHAM 170855Z 25011KT 210V300 9999 FEW024 22/16 Q1014 NOSIG
Antananarivo (FMMI) 17.07.2018 09:00 UTC Zobrazit METAR
FMMI 170900Z 19016KT 9999 FEW020 BKN023 16/08 Q1025 NOSIG
1 2 3 ... 9 Další
Reklama

Počasí na Váš email

Emaily jsou bez reklamy a bez spamu



Odhlásit newsletter

Reklama


Lunární kalendář

  • 19.07.
  • 27.07.
  • 04.08.
  • 11.08.



Slunečno.cz na Google+

Reklama


Reklama
Povinné ručení
Reklama




Reklama